sensor_id;sensor_type;location;lat;lon;timestamp;temperature;humidity
72114;SHT31;59989;46.220;19.888;2022-07-22T00:00:09;22.00;57.65
72114;SHT31;59989;46.220;19.888;2022-07-22T00:03:12;21.93;58.49
72114;SHT31;59989;46.220;19.888;2022-07-22T00:06:15;21.93;58.67
72114;SHT31;59989;46.220;19.888;2022-07-22T00:09:18;21.96;58.60
72114;SHT31;59989;46.220;19.888;2022-07-22T00:12:20;21.85;59.39
72114;SHT31;59989;46.220;19.888;2022-07-22T00:15:23;21.73;58.63
72114;SHT31;59989;46.220;19.888;2022-07-22T00:18:26;21.69;59.29
72114;SHT31;59989;46.220;19.888;2022-07-22T00:21:29;21.63;58.10
72114;SHT31;59989;46.220;19.888;2022-07-22T00:24:32;21.63;58.31
72114;SHT31;59989;46.220;19.888;2022-07-22T00:27:34;21.56;57.92
72114;SHT31;59989;46.220;19.888;2022-07-22T00:30:37;21.52;57.17
72114;SHT31;59989;46.220;19.888;2022-07-22T00:33:40;21.48;57.14
72114;SHT31;59989;46.220;19.888;2022-07-22T00:36:43;21.42;56.95
72114;SHT31;59989;46.220;19.888;2022-07-22T00:39:46;21.39;57.30
72114;SHT31;59989;46.220;19.888;2022-07-22T00:42:50;21.38;57.94
72114;SHT31;59989;46.220;19.888;2022-07-22T00:45:54;21.37;58.35
72114;SHT31;59989;46.220;19.888;2022-07-22T00:48:57;21.31;58.28
72114;SHT31;59989;46.220;19.888;2022-07-22T00:52:01;21.24;59.07
72114;SHT31;59989;46.220;19.888;2022-07-22T00:55:05;21.15;60.37
72114;SHT31;59989;46.220;19.888;2022-07-22T00:58:07;21.07;61.05
72114;SHT31;59989;46.220;19.888;2022-07-22T01:01:10;20.98;61.41
72114;SHT31;59989;46.220;19.888;2022-07-22T01:04:13;20.94;61.32
72114;SHT31;59989;46.220;19.888;2022-07-22T01:07:17;20.91;61.34
72114;SHT31;59989;46.220;19.888;2022-07-22T01:10:20;20.83;63.76
72114;SHT31;59989;46.220;19.888;2022-07-22T01:13:24;20.72;63.14
72114;SHT31;59989;46.220;19.888;2022-07-22T01:16:27;20.65;64.15
72114;SHT31;59989;46.220;19.888;2022-07-22T01:19:29;20.56;65.44
72114;SHT31;59989;46.220;19.888;2022-07-22T01:22:33;20.45;64.86
72114;SHT31;59989;46.220;19.888;2022-07-22T01:25:36;20.39;64.94
72114;SHT31;59989;46.220;19.888;2022-07-22T01:28:38;20.30;65.32
72114;SHT31;59989;46.220;19.888;2022-07-22T01:31:41;20.24;66.03
72114;SHT31;59989;46.220;19.888;2022-07-22T01:34:44;20.17;65.90
72114;SHT31;59989;46.220;19.888;2022-07-22T01:37:47;20.09;66.56
72114;SHT31;59989;46.220;19.888;2022-07-22T01:40:50;20.02;66.45
72114;SHT31;59989;46.220;19.888;2022-07-22T01:43:53;20.01;66.42
72114;SHT31;59989;46.220;19.888;2022-07-22T01:46:56;19.98;64.32
72114;SHT31;59989;46.220;19.888;2022-07-22T01:50:04;19.91;63.57
72114;SHT31;59989;46.220;19.888;2022-07-22T01:53:09;19.87;61.93
72114;SHT31;59989;46.220;19.888;2022-07-22T01:56:12;19.81;61.51
72114;SHT31;59989;46.220;19.888;2022-07-22T01:59:22;19.80;61.77
72114;SHT31;59989;46.220;19.888;2022-07-22T02:02:25;19.80;61.86
72114;SHT31;59989;46.220;19.888;2022-07-22T02:05:28;19.78;61.90
72114;SHT31;59989;46.220;19.888;2022-07-22T02:08:36;19.71;61.74
72114;SHT31;59989;46.220;19.888;2022-07-22T02:11:50;19.70;61.94
72114;SHT31;59989;46.220;19.888;2022-07-22T02:14:54;19.63;61.39
72114;SHT31;59989;46.220;19.888;2022-07-22T02:17:57;19.57;61.15
72114;SHT31;59989;46.220;19.888;2022-07-22T02:21:01;19.51;61.82
72114;SHT31;59989;46.220;19.888;2022-07-22T02:24:04;19.51;61.93
72114;SHT31;59989;46.220;19.888;2022-07-22T02:27:07;19.47;61.88
72114;SHT31;59989;46.220;19.888;2022-07-22T02:30:12;19.39;62.53
72114;SHT31;59989;46.220;19.888;2022-07-22T02:33:15;19.33;61.87
72114;SHT31;59989;46.220;19.888;2022-07-22T02:36:19;19.24;62.26
72114;SHT31;59989;46.220;19.888;2022-07-22T02:39:22;19.24;62.54
72114;SHT31;59989;46.220;19.888;2022-07-22T02:42:25;19.18;64.77
72114;SHT31;59989;46.220;19.888;2022-07-22T02:45:28;19.18;63.86
72114;SHT31;59989;46.220;19.888;2022-07-22T02:48:32;19.11;62.87
72114;SHT31;59989;46.220;19.888;2022-07-22T02:51:36;19.11;62.72
72114;SHT31;59989;46.220;19.888;2022-07-22T02:54:39;19.08;63.19
72114;SHT31;59989;46.220;19.888;2022-07-22T02:57:42;19.13;62.76
72114;SHT31;59989;46.220;19.888;2022-07-22T03:00:46;19.06;62.91
72114;SHT31;59989;46.220;19.888;2022-07-22T03:03:49;18.99;64.93
72114;SHT31;59989;46.220;19.888;2022-07-22T03:06:52;18.88;64.60
72114;SHT31;59989;46.220;19.888;2022-07-22T03:09:58;18.79;65.51
72114;SHT31;59989;46.220;19.888;2022-07-22T03:13:06;18.74;65.61
72114;SHT31;59989;46.220;19.888;2022-07-22T03:16:09;18.91;66.31
72114;SHT31;59989;46.220;19.888;2022-07-22T03:19:13;18.88;65.15
72114;SHT31;59989;46.220;19.888;2022-07-22T03:22:19;18.82;65.12
72114;SHT31;59989;46.220;19.888;2022-07-22T03:25:22;18.75;65.40
72114;SHT31;59989;46.220;19.888;2022-07-22T03:28:24;18.69;64.34
72114;SHT31;59989;46.220;19.888;2022-07-22T03:31:28;18.65;64.96
72114;SHT31;59989;46.220;19.888;2022-07-22T03:34:30;18.68;64.56
72114;SHT31;59989;46.220;19.888;2022-07-22T03:37:39;18.65;65.34
72114;SHT31;59989;46.220;19.888;2022-07-22T03:40:42;18.68;65.33
72114;SHT31;59989;46.220;19.888;2022-07-22T03:43:45;18.74;64.66
72114;SHT31;59989;46.220;19.888;2022-07-22T03:46:48;19.01;61.77
72114;SHT31;59989;46.220;19.888;2022-07-22T03:49:51;19.18;62.35
72114;SHT31;59989;46.220;19.888;2022-07-22T03:53:01;19.26;61.03
72114;SHT31;59989;46.220;19.888;2022-07-22T03:56:04;19.53;59.05
72114;SHT31;59989;46.220;19.888;2022-07-22T03:59:07;19.74;57.93
72114;SHT31;59989;46.220;19.888;2022-07-22T04:02:10;19.90;56.75
72114;SHT31;59989;46.220;19.888;2022-07-22T04:05:13;20.07;55.81
72114;SHT31;59989;46.220;19.888;2022-07-22T04:08:17;20.18;55.74
72114;SHT31;59989;46.220;19.888;2022-07-22T04:11:21;20.21;55.70
72114;SHT31;59989;46.220;19.888;2022-07-22T04:14:25;20.25;55.61
72114;SHT31;59989;46.220;19.888;2022-07-22T04:17:30;20.30;55.48
72114;SHT31;59989;46.220;19.888;2022-07-22T04:20:32;20.38;55.36
72114;SHT31;59989;46.220;19.888;2022-07-22T04:24:03;20.39;55.67
72114;SHT31;59989;46.220;19.888;2022-07-22T04:27:06;20.45;55.08
72114;SHT31;59989;46.220;19.888;2022-07-22T04:30:11;20.53;54.33
72114;SHT31;59989;46.220;19.888;2022-07-22T04:33:16;20.60;53.75
72114;SHT31;59989;46.220;19.888;2022-07-22T04:36:19;20.73;53.67
72114;SHT31;59989;46.220;19.888;2022-07-22T04:39:22;20.80;53.36
72114;SHT31;59989;46.220;19.888;2022-07-22T04:42:31;20.90;53.62
72114;SHT31;59989;46.220;19.888;2022-07-22T04:45:33;20.90;53.34
72114;SHT31;59989;46.220;19.888;2022-07-22T04:48:37;21.04;52.64
72114;SHT31;59989;46.220;19.888;2022-07-22T04:51:40;21.14;52.15
72114;SHT31;59989;46.220;19.888;2022-07-22T04:54:48;21.21;52.54
72114;SHT31;59989;46.220;19.888;2022-07-22T04:57:52;21.34;51.99
72114;SHT31;59989;46.220;19.888;2022-07-22T05:00:55;21.41;52.09
72114;SHT31;59989;46.220;19.888;2022-07-22T05:03:58;21.51;51.55
72114;SHT31;59989;46.220;19.888;2022-07-22T05:07:00;21.62;50.92
72114;SHT31;59989;46.220;19.888;2022-07-22T05:10:05;21.76;50.31
72114;SHT31;59989;46.220;19.888;2022-07-22T05:13:11;21.89;50.35
72114;SHT31;59989;46.220;19.888;2022-07-22T05:16:14;21.99;49.08
72114;SHT31;59989;46.220;19.888;2022-07-22T05:19:18;22.04;48.12
72114;SHT31;59989;46.220;19.888;2022-07-22T05:22:21;22.04;48.51
72114;SHT31;59989;46.220;19.888;2022-07-22T05:25:29;22.29;47.48
72114;SHT31;59989;46.220;19.888;2022-07-22T05:28:32;22.50;46.74
72114;SHT31;59989;46.220;19.888;2022-07-22T05:31:36;22.65;45.06
72114;SHT31;59989;46.220;19.888;2022-07-22T05:34:39;22.75;44.84
72114;SHT31;59989;46.220;19.888;2022-07-22T05:37:41;22.81;44.88
72114;SHT31;59989;46.220;19.888;2022-07-22T05:40:44;22.87;44.92
72114;SHT31;59989;46.220;19.888;2022-07-22T05:43:47;23.06;44.34
72114;SHT31;59989;46.220;19.888;2022-07-22T05:46:53;23.19;43.54
72114;SHT31;59989;46.220;19.888;2022-07-22T05:49:56;23.34;42.97
72114;SHT31;59989;46.220;19.888;2022-07-22T05:52:59;23.33;43.89
72114;SHT31;59989;46.220;19.888;2022-07-22T05:56:02;23.43;43.89
72114;SHT31;59989;46.220;19.888;2022-07-22T05:59:10;23.50;43.17
72114;SHT31;59989;46.220;19.888;2022-07-22T06:02:13;23.73;42.02
72114;SHT31;59989;46.220;19.888;2022-07-22T06:05:20;23.93;42.21
72114;SHT31;59989;46.220;19.888;2022-07-22T06:08:43;24.09;41.76
72114;SHT31;59989;46.220;19.888;2022-07-22T06:11:51;24.24;42.59
72114;SHT31;59989;46.220;19.888;2022-07-22T06:14:54;24.39;41.83
72114;SHT31;59989;46.220;19.888;2022-07-22T06:17:57;24.46;41.43
72114;SHT31;59989;46.220;19.888;2022-07-22T06:21:00;24.57;41.84
72114;SHT31;59989;46.220;19.888;2022-07-22T06:24:03;24.77;41.39
72114;SHT31;59989;46.220;19.888;2022-07-22T06:27:06;24.94;41.50
72114;SHT31;59989;46.220;19.888;2022-07-22T06:30:09;25.14;41.62
72114;SHT31;59989;46.220;19.888;2022-07-22T06:33:12;25.38;40.39
72114;SHT31;59989;46.220;19.888;2022-07-22T06:36:15;25.57;39.38
72114;SHT31;59989;46.220;19.888;2022-07-22T06:39:21;25.79;39.10
72114;SHT31;59989;46.220;19.888;2022-07-22T06:42:49;26.03;39.11
72114;SHT31;59989;46.220;19.888;2022-07-22T06:46:30;26.38;37.24
72114;SHT31;59989;46.220;19.888;2022-07-22T06:49:33;26.52;36.66
72114;SHT31;59989;46.220;19.888;2022-07-22T06:52:40;26.69;36.68
72114;SHT31;59989;46.220;19.888;2022-07-22T06:55:43;26.89;35.62
72114;SHT31;59989;46.220;19.888;2022-07-22T06:58:47;27.12;36.21
72114;SHT31;59989;46.220;19.888;2022-07-22T07:01:51;27.36;35.42
72114;SHT31;59989;46.220;19.888;2022-07-22T07:04:55;27.51;35.56
72114;SHT31;59989;46.220;19.888;2022-07-22T07:07:58;27.80;33.92
72114;SHT31;59989;46.220;19.888;2022-07-22T07:11:01;28.13;33.28
72114;SHT31;59989;46.220;19.888;2022-07-22T07:14:04;28.32;32.93
72114;SHT31;59989;46.220;19.888;2022-07-22T07:17:07;28.56;32.44
72114;SHT31;59989;46.220;19.888;2022-07-22T07:20:13;28.87;31.98
72114;SHT31;59989;46.220;19.888;2022-07-22T07:23:16;29.12;31.65
72114;SHT31;59989;46.220;19.888;2022-07-22T07:26:20;29.28;30.85
72114;SHT31;59989;46.220;19.888;2022-07-22T07:29:23;29.51;31.80
72114;SHT31;59989;46.220;19.888;2022-07-22T07:32:27;29.82;31.23
72114;SHT31;59989;46.220;19.888;2022-07-22T07:35:32;29.82;30.19
72114;SHT31;59989;46.220;19.888;2022-07-22T07:38:37;29.79;30.36
72114;SHT31;59989;46.220;19.888;2022-07-22T07:41:45;29.99;29.15
72114;SHT31;59989;46.220;19.888;2022-07-22T07:44:58;30.52;29.68
72114;SHT31;59989;46.220;19.888;2022-07-22T07:48:02;30.75;28.94
72114;SHT31;59989;46.220;19.888;2022-07-22T07:51:05;30.85;28.52
72114;SHT31;59989;46.220;19.888;2022-07-22T07:54:08;30.93;26.91
72114;SHT31;59989;46.220;19.888;2022-07-22T07:57:13;31.04;26.63
72114;SHT31;59989;46.220;19.888;2022-07-22T08:00:19;31.25;27.31
72114;SHT31;59989;46.220;19.888;2022-07-22T08:03:23;31.67;26.87
72114;SHT31;59989;46.220;19.888;2022-07-22T08:06:26;31.77;27.25
72114;SHT31;59989;46.220;19.888;2022-07-22T08:09:29;32.06;27.04
72114;SHT31;59989;46.220;19.888;2022-07-22T08:12:35;32.06;25.58
72114;SHT31;59989;46.220;19.888;2022-07-22T08:15:53;32.48;24.49
72114;SHT31;59989;46.220;19.888;2022-07-22T08:18:57;32.63;24.18
72114;SHT31;59989;46.220;19.888;2022-07-22T08:22:00;32.81;23.76
72114;SHT31;59989;46.220;19.888;2022-07-22T08:25:07;33.07;23.83
72114;SHT31;59989;46.220;19.888;2022-07-22T08:28:11;32.88;22.62
72114;SHT31;59989;46.220;19.888;2022-07-22T08:31:14;32.90;23.05
72114;SHT31;59989;46.220;19.888;2022-07-22T08:34:17;32.99;21.98
72114;SHT31;59989;46.220;19.888;2022-07-22T08:37:20;33.12;21.64
72114;SHT31;59989;46.220;19.888;2022-07-22T08:40:24;33.32;23.11
72114;SHT31;59989;46.220;19.888;2022-07-22T08:43:28;33.44;22.04
72114;SHT31;59989;46.220;19.888;2022-07-22T08:46:31;33.42;22.98
72114;SHT31;59989;46.220;19.888;2022-07-22T08:49:52;33.52;23.02
72114;SHT31;59989;46.220;19.888;2022-07-22T08:53:16;33.82;22.54
72114;SHT31;59989;46.220;19.888;2022-07-22T08:56:20;34.06;22.18
72114;SHT31;59989;46.220;19.888;2022-07-22T08:59:24;34.47;20.32
72114;SHT31;59989;46.220;19.888;2022-07-22T09:02:36;34.34;20.05
72114;SHT31;59989;46.220;19.888;2022-07-22T09:05:42;34.80;20.79
72114;SHT31;59989;46.220;19.888;2022-07-22T09:12:21;35.30;19.42
72114;SHT31;59989;46.220;19.888;2022-07-22T09:15:51;35.46;19.42
72114;SHT31;59989;46.220;19.888;2022-07-22T09:19:31;35.01;19.11
72114;SHT31;59989;46.220;19.888;2022-07-22T09:23:18;35.78;18.76
72114;SHT31;59989;46.220;19.888;2022-07-22T09:26:37;35.98;18.44
72114;SHT31;59989;46.220;19.888;2022-07-22T09:30:25;35.93;18.92
72114;SHT31;59989;46.220;19.888;2022-07-22T09:33:42;35.96;18.42
72114;SHT31;59989;46.220;19.888;2022-07-22T09:36:58;36.27;18.48
72114;SHT31;59989;46.220;19.888;2022-07-22T09:40:17;36.49;16.69
72114;SHT31;59989;46.220;19.888;2022-07-22T09:43:21;36.82;17.06
72114;SHT31;59989;46.220;19.888;2022-07-22T09:46:37;36.72;16.78
72114;SHT31;59989;46.220;19.888;2022-07-22T09:49:57;36.89;17.76
72114;SHT31;59989;46.220;19.888;2022-07-22T09:53:09;36.90;17.23
72114;SHT31;59989;46.220;19.888;2022-07-22T09:56:18;37.71;17.01
72114;SHT31;59989;46.220;19.888;2022-07-22T09:59:21;37.33;16.37
72114;SHT31;59989;46.220;19.888;2022-07-22T10:02:45;36.65;16.35
72114;SHT31;59989;46.220;19.888;2022-07-22T10:05:49;36.38;16.25
72114;SHT31;59989;46.220;19.888;2022-07-22T10:08:54;36.38;16.97
72114;SHT31;59989;46.220;19.888;2022-07-22T10:12:07;36.49;17.27
72114;SHT31;59989;46.220;19.888;2022-07-22T10:15:11;36.87;16.54
72114;SHT31;59989;46.220;19.888;2022-07-22T10:18:19;37.17;17.05
72114;SHT31;59989;46.220;19.888;2022-07-22T10:21:33;37.99;15.26
72114;SHT31;59989;46.220;19.888;2022-07-22T10:24:59;38.49;16.59
72114;SHT31;59989;46.220;19.888;2022-07-22T10:28:05;38.27;15.68
72114;SHT31;59989;46.220;19.888;2022-07-22T10:34:16;38.90;16.36
72114;SHT31;59989;46.220;19.888;2022-07-22T10:43:51;39.14;14.94
72114;SHT31;59989;46.220;19.888;2022-07-22T10:46:55;39.53;15.61
72114;SHT31;59989;46.220;19.888;2022-07-22T10:56:44;39.96;14.60
72114;SHT31;59989;46.220;19.888;2022-07-22T10:59:54;40.03;15.56
72114;SHT31;59989;46.220;19.888;2022-07-22T11:02:56;40.20;15.00
72114;SHT31;59989;46.220;19.888;2022-07-22T11:09:32;40.51;15.38
72114;SHT31;59989;46.220;19.888;2022-07-22T11:12:35;40.54;14.94
72114;SHT31;59989;46.220;19.888;2022-07-22T11:15:38;40.40;14.62
72114;SHT31;59989;46.220;19.888;2022-07-22T11:18:59;40.04;15.14
72114;SHT31;59989;46.220;19.888;2022-07-22T11:22:10;40.09;14.57
72114;SHT31;59989;46.220;19.888;2022-07-22T11:25:14;40.71;14.68
72114;SHT31;59989;46.220;19.888;2022-07-22T11:28:18;40.99;14.89
72114;SHT31;59989;46.220;19.888;2022-07-22T11:31:20;41.12;14.88
72114;SHT31;59989;46.220;19.888;2022-07-22T11:34:23;41.27;14.38
72114;SHT31;59989;46.220;19.888;2022-07-22T11:37:28;40.34;15.04
72114;SHT31;59989;46.220;19.888;2022-07-22T11:40:33;40.40;15.34
72114;SHT31;59989;46.220;19.888;2022-07-22T11:43:41;40.44;15.17
72114;SHT31;59989;46.220;19.888;2022-07-22T11:46:43;40.65;15.59
72114;SHT31;59989;46.220;19.888;2022-07-22T11:49:46;41.66;14.85
72114;SHT31;59989;46.220;19.888;2022-07-22T11:52:53;41.44;14.45
72114;SHT31;59989;46.220;19.888;2022-07-22T11:56:00;41.67;14.80
72114;SHT31;59989;46.220;19.888;2022-07-22T11:59:04;41.05;15.06
72114;SHT31;59989;46.220;19.888;2022-07-22T12:02:08;41.82;14.62
72114;SHT31;59989;46.220;19.888;2022-07-22T12:05:12;41.36;14.48
72114;SHT31;59989;46.220;19.888;2022-07-22T12:08:40;41.61;14.39
72114;SHT31;59989;46.220;19.888;2022-07-22T12:11:46;41.71;14.52
72114;SHT31;59989;46.220;19.888;2022-07-22T12:14:49;42.48;14.19
72114;SHT31;59989;46.220;19.888;2022-07-22T12:17:51;41.56;14.09
72114;SHT31;59989;46.220;19.888;2022-07-22T12:20:55;42.31;14.54
72114;SHT31;59989;46.220;19.888;2022-07-22T12:24:07;42.70;13.35
72114;SHT31;59989;46.220;19.888;2022-07-22T12:27:17;42.27;14.18
72114;SHT31;59989;46.220;19.888;2022-07-22T12:30:21;42.77;13.35
72114;SHT31;59989;46.220;19.888;2022-07-22T12:33:24;42.38;13.62
72114;SHT31;59989;46.220;19.888;2022-07-22T12:36:33;43.39;13.28
72114;SHT31;59989;46.220;19.888;2022-07-22T12:39:35;42.69;13.49
72114;SHT31;59989;46.220;19.888;2022-07-22T12:42:40;43.25;13.27
72114;SHT31;59989;46.220;19.888;2022-07-22T12:45:43;44.07;13.03
72114;SHT31;59989;46.220;19.888;2022-07-22T12:48:53;41.71;13.67
72114;SHT31;59989;46.220;19.888;2022-07-22T12:55:11;43.65;12.95
72114;SHT31;59989;46.220;19.888;2022-07-22T12:58:14;42.90;13.36
72114;SHT31;59989;46.220;19.888;2022-07-22T13:01:18;44.98;12.61
72114;SHT31;59989;46.220;19.888;2022-07-22T13:04:21;43.54;12.98
72114;SHT31;59989;46.220;19.888;2022-07-22T13:07:24;45.53;12.47
72114;SHT31;59989;46.220;19.888;2022-07-22T13:10:27;45.80;12.29
72114;SHT31;59989;46.220;19.888;2022-07-22T13:13:29;44.90;12.83
72114;SHT31;59989;46.220;19.888;2022-07-22T13:16:32;43.85;12.87
72114;SHT31;59989;46.220;19.888;2022-07-22T13:19:35;45.23;12.82
72114;SHT31;59989;46.220;19.888;2022-07-22T13:22:37;46.24;11.74
72114;SHT31;59989;46.220;19.888;2022-07-22T13:25:40;48.18;11.32
72114;SHT31;59989;46.220;19.888;2022-07-22T13:28:43;47.32;11.22
72114;SHT31;59989;46.220;19.888;2022-07-22T13:31:45;47.50;11.62
72114;SHT31;59989;46.220;19.888;2022-07-22T13:35:08;47.82;11.18
72114;SHT31;59989;46.220;19.888;2022-07-22T13:38:11;46.55;11.85
72114;SHT31;59989;46.220;19.888;2022-07-22T13:41:18;47.37;11.53
72114;SHT31;59989;46.220;19.888;2022-07-22T13:44:20;48.11;11.34
72114;SHT31;59989;46.220;19.888;2022-07-22T13:47:23;47.15;12.09
72114;SHT31;59989;46.220;19.888;2022-07-22T13:50:25;46.76;11.96
72114;SHT31;59989;46.220;19.888;2022-07-22T13:53:28;47.70;11.64
72114;SHT31;59989;46.220;19.888;2022-07-22T13:56:31;48.17;11.45
72114;SHT31;59989;46.220;19.888;2022-07-22T13:59:34;48.99;10.91
72114;SHT31;59989;46.220;19.888;2022-07-22T14:02:37;48.63;11.16
72114;SHT31;59989;46.220;19.888;2022-07-22T14:05:40;48.54;11.89
72114;SHT31;59989;46.220;19.888;2022-07-22T14:08:42;48.59;11.10
72114;SHT31;59989;46.220;19.888;2022-07-22T14:11:45;50.05;10.26
72114;SHT31;59989;46.220;19.888;2022-07-22T14:14:47;51.86;9.61
72114;SHT31;59989;46.220;19.888;2022-07-22T14:17:50;50.18;10.63
72114;SHT31;59989;46.220;19.888;2022-07-22T14:20:53;50.74;10.17
72114;SHT31;59989;46.220;19.888;2022-07-22T14:23:55;51.66;10.13
72114;SHT31;59989;46.220;19.888;2022-07-22T14:26:58;51.46;9.88
72114;SHT31;59989;46.220;19.888;2022-07-22T14:30:01;51.24;9.98
72114;SHT31;59989;46.220;19.888;2022-07-22T14:33:04;52.92;9.04
72114;SHT31;59989;46.220;19.888;2022-07-22T14:36:07;52.21;9.89
72114;SHT31;59989;46.220;19.888;2022-07-22T14:39:09;52.61;9.60
72114;SHT31;59989;46.220;19.888;2022-07-22T14:42:12;53.12;9.18
72114;SHT31;59989;46.220;19.888;2022-07-22T14:45:15;51.13;9.75
72114;SHT31;59989;46.220;19.888;2022-07-22T14:48:17;52.65;9.86
72114;SHT31;59989;46.220;19.888;2022-07-22T14:51:21;52.33;10.19
72114;SHT31;59989;46.220;19.888;2022-07-22T14:54:24;52.83;9.88
72114;SHT31;59989;46.220;19.888;2022-07-22T14:57:26;53.11;9.66
72114;SHT31;59989;46.220;19.888;2022-07-22T15:00:29;53.81;9.07
72114;SHT31;59989;46.220;19.888;2022-07-22T15:03:31;53.50;9.12
72114;SHT31;59989;46.220;19.888;2022-07-22T15:06:34;52.63;10.30
72114;SHT31;59989;46.220;19.888;2022-07-22T15:09:36;51.62;9.64
72114;SHT31;59989;46.220;19.888;2022-07-22T15:12:39;49.80;10.59
72114;SHT31;59989;46.220;19.888;2022-07-22T15:15:51;49.98;10.64
72114;SHT31;59989;46.220;19.888;2022-07-22T15:18:53;48.54;10.98
72114;SHT31;59989;46.220;19.888;2022-07-22T15:21:56;49.44;10.66
72114;SHT31;59989;46.220;19.888;2022-07-22T15:24:58;50.07;10.36
72114;SHT31;59989;46.220;19.888;2022-07-22T15:28:01;51.35;10.09
72114;SHT31;59989;46.220;19.888;2022-07-22T15:31:25;52.13;9.79
72114;SHT31;59989;46.220;19.888;2022-07-22T15:34:31;51.24;10.17
72114;SHT31;59989;46.220;19.888;2022-07-22T15:37:35;50.87;9.83
72114;SHT31;59989;46.220;19.888;2022-07-22T15:40:40;51.03;10.02
72114;SHT31;59989;46.220;19.888;2022-07-22T15:43:43;51.88;9.61
72114;SHT31;59989;46.220;19.888;2022-07-22T15:46:45;51.86;9.51
72114;SHT31;59989;46.220;19.888;2022-07-22T15:49:49;50.79;9.90
72114;SHT31;59989;46.220;19.888;2022-07-22T15:52:55;50.04;10.47
72114;SHT31;59989;46.220;19.888;2022-07-22T15:55:58;49.14;10.36
72114;SHT31;59989;46.220;19.888;2022-07-22T15:59:01;49.71;10.72
72114;SHT31;59989;46.220;19.888;2022-07-22T16:02:31;50.49;10.34
72114;SHT31;59989;46.220;19.888;2022-07-22T16:05:34;50.09;10.77
72114;SHT31;59989;46.220;19.888;2022-07-22T16:08:36;48.28;11.66
72114;SHT31;59989;46.220;19.888;2022-07-22T16:11:39;46.42;12.25
72114;SHT31;59989;46.220;19.888;2022-07-22T16:14:42;43.39;13.26
72114;SHT31;59989;46.220;19.888;2022-07-22T16:17:44;41.95;15.06
72114;SHT31;59989;46.220;19.888;2022-07-22T16:20:47;41.29;15.38
72114;SHT31;59989;46.220;19.888;2022-07-22T16:23:49;40.64;16.41
72114;SHT31;59989;46.220;19.888;2022-07-22T16:26:54;40.00;16.49
72114;SHT31;59989;46.220;19.888;2022-07-22T16:29:57;40.09;16.37
72114;SHT31;59989;46.220;19.888;2022-07-22T16:33:00;39.88;16.15
72114;SHT31;59989;46.220;19.888;2022-07-22T16:36:03;39.53;15.66
72114;SHT31;59989;46.220;19.888;2022-07-22T16:39:06;40.86;16.24
72114;SHT31;59989;46.220;19.888;2022-07-22T16:42:09;43.03;13.55
72114;SHT31;59989;46.220;19.888;2022-07-22T16:45:12;43.24;13.51
72114;SHT31;59989;46.220;19.888;2022-07-22T16:48:14;43.28;13.60
72114;SHT31;59989;46.220;19.888;2022-07-22T16:51:17;44.99;13.36
72114;SHT31;59989;46.220;19.888;2022-07-22T16:54:22;45.66;13.25
72114;SHT31;59989;46.220;19.888;2022-07-22T16:57:25;45.76;13.03
72114;SHT31;59989;46.220;19.888;2022-07-22T17:00:28;44.03;14.14
72114;SHT31;59989;46.220;19.888;2022-07-22T17:03:31;42.12;15.16
72114;SHT31;59989;46.220;19.888;2022-07-22T17:06:34;40.57;16.02
72114;SHT31;59989;46.220;19.888;2022-07-22T17:09:36;39.45;17.08
72114;SHT31;59989;46.220;19.888;2022-07-22T17:12:39;38.50;17.97
72114;SHT31;59989;46.220;19.888;2022-07-22T17:15:41;37.84;18.47
72114;SHT31;59989;46.220;19.888;2022-07-22T17:18:44;37.30;18.86
72114;SHT31;59989;46.220;19.888;2022-07-22T17:21:46;36.75;19.26
72114;SHT31;59989;46.220;19.888;2022-07-22T17:24:50;36.36;19.44
72114;SHT31;59989;46.220;19.888;2022-07-22T17:27:52;36.02;20.57
72114;SHT31;59989;46.220;19.888;2022-07-22T17:30:55;35.60;21.20
72114;SHT31;59989;46.220;19.888;2022-07-22T17:33:57;35.25;21.23
72114;SHT31;59989;46.220;19.888;2022-07-22T17:37:01;34.88;21.44
72114;SHT31;59989;46.220;19.888;2022-07-22T17:40:04;34.64;23.75
72114;SHT31;59989;46.220;19.888;2022-07-22T17:43:07;34.41;22.60
72114;SHT31;59989;46.220;19.888;2022-07-22T17:46:11;34.13;23.79
72114;SHT31;59989;46.220;19.888;2022-07-22T17:49:14;33.83;23.93
72114;SHT31;59989;46.220;19.888;2022-07-22T17:52:17;33.57;24.08
72114;SHT31;59989;46.220;19.888;2022-07-22T17:55:19;33.08;25.37
72114;SHT31;59989;46.220;19.888;2022-07-22T17:58:22;32.93;26.05
72114;SHT31;59989;46.220;19.888;2022-07-22T18:01:24;32.64;27.34
72114;SHT31;59989;46.220;19.888;2022-07-22T18:04:27;32.36;27.44
72114;SHT31;59989;46.220;19.888;2022-07-22T18:07:29;32.15;27.34
72114;SHT31;59989;46.220;19.888;2022-07-22T18:10:32;31.89;28.04
72114;SHT31;59989;46.220;19.888;2022-07-22T18:13:34;31.61;28.55
72114;SHT31;59989;46.220;19.888;2022-07-22T18:16:37;31.39;29.19
72114;SHT31;59989;46.220;19.888;2022-07-22T18:19:40;31.20;29.88
72114;SHT31;59989;46.220;19.888;2022-07-22T18:22:42;30.96;30.80
72114;SHT31;59989;46.220;19.888;2022-07-22T18:25:45;30.79;30.83
72114;SHT31;59989;46.220;19.888;2022-07-22T18:28:47;30.58;30.40
72114;SHT31;59989;46.220;19.888;2022-07-22T18:31:50;30.45;30.90
72114;SHT31;59989;46.220;19.888;2022-07-22T18:34:53;30.23;31.96
72114;SHT31;59989;46.220;19.888;2022-07-22T18:37:55;30.04;31.77
72114;SHT31;59989;46.220;19.888;2022-07-22T18:40:58;29.80;33.88
72114;SHT31;59989;46.220;19.888;2022-07-22T18:44:01;29.63;34.83
72114;SHT31;59989;46.220;19.888;2022-07-22T18:47:03;29.44;35.11
72114;SHT31;59989;46.220;19.888;2022-07-22T18:50:06;29.19;36.26
72114;SHT31;59989;46.220;19.888;2022-07-22T18:53:09;29.03;37.15
72114;SHT31;59989;46.220;19.888;2022-07-22T18:56:12;28.87;36.80
72114;SHT31;59989;46.220;19.888;2022-07-22T18:59:15;28.70;36.19
72114;SHT31;59989;46.220;19.888;2022-07-22T19:02:17;28.52;36.72
72114;SHT31;59989;46.220;19.888;2022-07-22T19:05:20;28.33;37.09
72114;SHT31;59989;46.220;19.888;2022-07-22T19:08:22;28.25;37.54
72114;SHT31;59989;46.220;19.888;2022-07-22T19:11:25;28.11;38.61
72114;SHT31;59989;46.220;19.888;2022-07-22T19:14:27;28.05;40.48
72114;SHT31;59989;46.220;19.888;2022-07-22T19:17:30;27.95;41.01
72114;SHT31;59989;46.220;19.888;2022-07-22T19:20:33;27.91;41.52
72114;SHT31;59989;46.220;19.888;2022-07-22T19:23:35;27.77;40.88
72114;SHT31;59989;46.220;19.888;2022-07-22T19:26:38;27.61;42.05
72114;SHT31;59989;46.220;19.888;2022-07-22T19:29:41;27.42;42.05
72114;SHT31;59989;46.220;19.888;2022-07-22T19:32:43;27.29;42.41
72114;SHT31;59989;46.220;19.888;2022-07-22T19:35:46;27.16;43.14
72114;SHT31;59989;46.220;19.888;2022-07-22T19:38:49;27.03;43.60